sensor_id;sensor_type;location;lat;lon;timestamp;pressure;altitude;pressure_sealevel;temperature;humidity
49040;BME280;36811;49.732;13.402;2023-02-18T00:01:30;98225.72;;;11.00;88.84
49040;BME280;36811;49.732;13.402;2023-02-18T00:03:57;98224.22;;;10.87;90.37
49040;BME280;36811;49.732;13.402;2023-02-18T00:06:26;98222.78;;;10.79;91.34
49040;BME280;36811;49.732;13.402;2023-02-18T00:08:52;98220.28;;;10.73;91.52
49040;BME280;36811;49.732;13.402;2023-02-18T00:11:20;98219.81;;;10.76;91.92
49040;BME280;36811;49.732;13.402;2023-02-18T00:13:54;98216.03;;;10.72;92.20
49040;BME280;36811;49.732;13.402;2023-02-18T00:16:22;98226.44;;;10.73;91.64
49040;BME280;36811;49.732;13.402;2023-02-18T00:18:48;98217.63;;;10.73;92.37
49040;BME280;36811;49.732;13.402;2023-02-18T00:21:14;98225.13;;;10.76;91.85
49040;BME280;36811;49.732;13.402;2023-02-18T00:23:41;98215.56;;;10.75;92.11
49040;BME280;36811;49.732;13.402;2023-02-18T00:26:14;98227.78;;;10.76;92.27
49040;BME280;36811;49.732;13.402;2023-02-18T00:28:41;98231.19;;;10.71;92.48
49040;BME280;36811;49.732;13.402;2023-02-18T00:31:12;98239.50;;;10.75;92.73
49040;BME280;36811;49.732;13.402;2023-02-18T00:33:40;98229.91;;;10.74;92.90
49040;BME280;36811;49.732;13.402;2023-02-18T00:36:09;98250.16;;;10.75;93.01
49040;BME280;36811;49.732;13.402;2023-02-18T00:38:36;98239.72;;;10.73;93.10
49040;BME280;36811;49.732;13.402;2023-02-18T00:41:03;98249.88;;;10.76;92.67
49040;BME280;36811;49.732;13.402;2023-02-18T00:43:29;98243.75;;;10.76;92.86
49040;BME280;36811;49.732;13.402;2023-02-18T00:45:55;98257.53;;;10.73;93.20
49040;BME280;36811;49.732;13.402;2023-02-18T00:48:21;98251.66;;;10.71;93.42
49040;BME280;36811;49.732;13.402;2023-02-18T00:50:47;98254.09;;;10.72;93.38
49040;BME280;36811;49.732;13.402;2023-02-18T00:53:12;98251.75;;;10.76;93.36
49040;BME280;36811;49.732;13.402;2023-02-18T00:55:42;98251.75;;;10.76;93.50
49040;BME280;36811;49.732;13.402;2023-02-18T00:58:09;98242.09;;;10.70;93.96
49040;BME280;36811;49.732;13.402;2023-02-18T01:00:36;98227.56;;;10.61;94.48
49040;BME280;36811;49.732;13.402;2023-02-18T01:03:02;98223.34;;;10.60;94.83
49040;BME280;36811;49.732;13.402;2023-02-18T01:05:31;98227.03;;;10.59;94.70
49040;BME280;36811;49.732;13.402;2023-02-18T01:07:56;98231.78;;;10.57;94.68
49040;BME280;36811;49.732;13.402;2023-02-18T01:10:22;98229.59;;;10.54;94.98
49040;BME280;36811;49.732;13.402;2023-02-18T01:12:48;98228.31;;;10.56;94.83
49040;BME280;36811;49.732;13.402;2023-02-18T01:15:15;98229.94;;;10.57;94.55
49040;BME280;36811;49.732;13.402;2023-02-18T01:17:41;98235.50;;;10.56;94.66
49040;BME280;36811;49.732;13.402;2023-02-18T01:20:08;98227.28;;;10.57;94.28
49040;BME280;36811;49.732;13.402;2023-02-18T01:22:34;98230.72;;;10.58;94.17
49040;BME280;36811;49.732;13.402;2023-02-18T01:25:00;98232.59;;;10.57;94.07
49040;BME280;36811;49.732;13.402;2023-02-18T01:27:26;98225.66;;;10.56;94.00
49040;BME280;36811;49.732;13.402;2023-02-18T01:29:52;98234.69;;;10.55;93.17
49040;BME280;36811;49.732;13.402;2023-02-18T01:32:17;98230.72;;;10.58;92.58
49040;BME280;36811;49.732;13.402;2023-02-18T01:34:43;98239.38;;;10.65;91.65
49040;BME280;36811;49.732;13.402;2023-02-18T01:37:08;98238.06;;;10.67;90.71
49040;BME280;36811;49.732;13.402;2023-02-18T01:39:34;98236.19;;;10.68;90.07
49040;BME280;36811;49.732;13.402;2023-02-18T01:41:59;98235.16;;;10.69;89.89
49040;BME280;36811;49.732;13.402;2023-02-18T01:44:27;98226.97;;;10.75;89.23
49040;BME280;36811;49.732;13.402;2023-02-18T01:46:53;98240.88;;;10.77;89.20
49040;BME280;36811;49.732;13.402;2023-02-18T01:49:23;98232.88;;;10.77;89.01
49040;BME280;36811;49.732;13.402;2023-02-18T01:51:58;98231.00;;;10.78;88.79
49040;BME280;36811;49.732;13.402;2023-02-18T01:54:34;98236.03;;;10.74;89.44
49040;BME280;36811;49.732;13.402;2023-02-18T01:57:08;98234.75;;;10.77;89.02
49040;BME280;36811;49.732;13.402;2023-02-18T02:00:05;98229.66;;;10.75;89.53
49040;BME280;36811;49.732;13.402;2023-02-18T02:02:34;98226.69;;;10.72;89.62
49040;BME280;36811;49.732;13.402;2023-02-18T02:05:02;98225.63;;;10.73;89.94
49040;BME280;36811;49.732;13.402;2023-02-18T02:07:28;98233.59;;;10.73;89.91
49040;BME280;36811;49.732;13.402;2023-02-18T02:09:56;98220.28;;;10.73;89.91
49040;BME280;36811;49.732;13.402;2023-02-18T02:40:15;98199.81;;;10.73;88.23
49040;BME280;36811;49.732;13.402;2023-02-18T02:43:04;98201.13;;;10.71;87.98
49040;BME280;36811;49.732;13.402;2023-02-18T02:48:45;98205.88;;;10.69;86.84
49040;BME280;36811;49.732;13.402;2023-02-18T02:51:08;98201.59;;;10.68;86.88
49040;BME280;36811;49.732;13.402;2023-02-18T02:53:38;98199.75;;;10.68;86.93
49040;BME280;36811;49.732;13.402;2023-02-18T02:56:05;98193.63;;;10.68;86.87
49040;BME280;36811;49.732;13.402;2023-02-18T02:58:30;98176.56;;;10.64;86.39
49040;BME280;36811;49.732;13.402;2023-02-18T03:09:15;98199.53;;;10.70;86.71
49040;BME280;36811;49.732;13.402;2023-02-18T03:11:57;98188.13;;;10.74;86.81
49040;BME280;36811;49.732;13.402;2023-02-18T03:14:39;98196.94;;;10.75;86.99
49040;BME280;36811;49.732;13.402;2023-02-18T03:17:22;98196.41;;;10.78;87.29
49040;BME280;36811;49.732;13.402;2023-02-18T03:19:56;98201.50;;;10.79;87.91
49040;BME280;36811;49.732;13.402;2023-02-18T03:22:33;98199.88;;;10.78;87.96
49040;BME280;36811;49.732;13.402;2023-02-18T03:25:02;98218.84;;;10.82;87.80
49040;BME280;36811;49.732;13.402;2023-02-18T03:27:38;98216.19;;;10.82;87.83
49040;BME280;36811;49.732;13.402;2023-02-18T03:30:14;98217.16;;;10.76;87.84
49040;BME280;36811;49.732;13.402;2023-02-18T03:32:41;98227.31;;;10.79;88.14
49040;BME280;36811;49.732;13.402;2023-02-18T03:35:14;98229.72;;;10.80;88.18
49040;BME280;36811;49.732;13.402;2023-02-18T03:37:54;98215.03;;;10.78;87.67
49040;BME280;36811;49.732;13.402;2023-02-18T03:40:27;98216.59;;;10.74;88.21
49040;BME280;36811;49.732;13.402;2023-02-18T03:42:56;98213.94;;;10.74;87.93
49040;BME280;36811;49.732;13.402;2023-02-18T03:45:23;98220.28;;;10.73;88.10
49040;BME280;36811;49.732;13.402;2023-02-18T03:47:49;98213.59;;;10.70;87.77
49040;BME280;36811;49.732;13.402;2023-02-18T03:50:15;98216.03;;;10.72;88.21
49040;BME280;36811;49.732;13.402;2023-02-18T03:52:41;98216.03;;;10.72;87.98
49040;BME280;36811;49.732;13.402;2023-02-18T03:55:06;98217.56;;;10.68;88.19
49040;BME280;36811;49.732;13.402;2023-02-18T03:57:34;98209.28;;;10.64;88.49
49040;BME280;36811;49.732;13.402;2023-02-18T04:00:00;98209.50;;;10.63;88.46
49040;BME280;36811;49.732;13.402;2023-02-18T04:02:25;98213.78;;;10.64;88.65
49040;BME280;36811;49.732;13.402;2023-02-18T04:04:51;98212.19;;;10.63;89.20
49040;BME280;36811;49.732;13.402;2023-02-18T04:07:17;98212.97;;;10.63;89.41
49040;BME280;36811;49.732;13.402;2023-02-18T04:09:42;98214.84;;;10.63;89.23
49040;BME280;36811;49.732;13.402;2023-02-18T04:12:08;98208.72;;;10.62;89.29
49040;BME280;36811;49.732;13.402;2023-02-18T04:14:33;98212.69;;;10.60;89.41
49040;BME280;36811;49.732;13.402;2023-02-18T04:16:59;98207.38;;;10.60;89.30
49040;BME280;36811;49.732;13.402;2023-02-18T04:19:26;98209.22;;;10.59;88.83
49040;BME280;36811;49.732;13.402;2023-02-18T04:21:51;98205.75;;;10.59;88.34
49040;BME280;36811;49.732;13.402;2023-02-18T04:24:17;98203.91;;;10.59;88.60
49040;BME280;36811;49.732;13.402;2023-02-18T04:26:43;98192.44;;;10.59;88.79
49040;BME280;36811;49.732;13.402;2023-02-18T04:29:09;98188.75;;;10.60;88.94
49040;BME280;36811;49.732;13.402;2023-02-18T04:31:34;98195.44;;;10.62;89.04
49040;BME280;36811;49.732;13.402;2023-02-18T04:34:00;98200.44;;;10.59;89.53
49040;BME280;36811;49.732;13.402;2023-02-18T04:36:26;98206.78;;;10.58;89.97
49040;BME280;36811;49.732;13.402;2023-02-18T04:38:51;98203.34;;;10.57;89.74
49040;BME280;36811;49.732;13.402;2023-02-18T04:41:17;98201.38;;;10.53;90.18
49040;BME280;36811;49.732;13.402;2023-02-18T04:43:43;98207.84;;;10.57;89.93
49040;BME280;36811;49.732;13.402;2023-02-18T04:46:09;98202.47;;;10.52;90.53
49040;BME280;36811;49.732;13.402;2023-02-18T04:48:34;98200.63;;;10.52;90.31
49040;BME280;36811;49.732;13.402;2023-02-18T04:51:00;98194.97;;;10.49;91.50
49040;BME280;36811;49.732;13.402;2023-02-18T04:53:26;98209.06;;;10.49;91.65
49040;BME280;36811;49.732;13.402;2023-02-18T04:55:52;98204.78;;;10.48;91.83
49040;BME280;36811;49.732;13.402;2023-02-18T04:58:19;98202.06;;;10.43;92.22
49040;BME280;36811;49.732;13.402;2023-02-18T05:00:45;98199.16;;;10.45;92.48
49040;BME280;36811;49.732;13.402;2023-02-18T05:03:11;98198.38;;;10.44;92.63
49040;BME280;36811;49.732;13.402;2023-02-18T05:05:37;98202.88;;;10.44;92.71
49040;BME280;36811;49.732;13.402;2023-02-18T05:08:03;98199.72;;;10.47;92.63
49040;BME280;36811;49.732;13.402;2023-02-18T05:10:29;98211.66;;;10.44;92.67
49040;BME280;36811;49.732;13.402;2023-02-18T05:12:54;98202.38;;;10.47;92.56
49040;BME280;36811;49.732;13.402;2023-02-18T05:15:20;98208.25;;;10.49;92.02
49040;BME280;36811;49.732;13.402;2023-02-18T05:17:45;98207.38;;;10.43;92.01
49040;BME280;36811;49.732;13.402;2023-02-18T05:20:11;98201.84;;;10.45;92.04
49040;BME280;36811;49.732;13.402;2023-02-18T05:22:37;98201.03;;;10.44;92.22
49040;BME280;36811;49.732;13.402;2023-02-18T05:25:04;98195.69;;;10.44;91.84
49040;BME280;36811;49.732;13.402;2023-02-18T05:27:30;98187.72;;;10.44;91.85
49040;BME280;36811;49.732;13.402;2023-02-18T05:29:56;98196.50;;;10.45;91.79
49040;BME280;36811;49.732;13.402;2023-02-18T05:32:22;98194.88;;;10.44;91.65
49040;BME280;36811;49.732;13.402;2023-02-18T05:34:47;98193.59;;;10.46;91.51
49040;BME280;36811;49.732;13.402;2023-02-18T05:37:13;98190.13;;;10.46;91.41
49040;BME280;36811;49.732;13.402;2023-02-18T05:39:40;98191.19;;;10.45;91.04
49040;BME280;36811;49.732;13.402;2023-02-18T05:42:06;98187.72;;;10.44;90.86
49040;BME280;36811;49.732;13.402;2023-02-18T05:44:32;98175.94;;;10.40;90.66
49040;BME280;36811;49.732;13.402;2023-02-18T05:47:04;98173.88;;;10.42;90.13
49040;BME280;36811;49.732;13.402;2023-02-18T05:49:32;98179.19;;;10.42;90.17
49040;BME280;36811;49.732;13.402;2023-02-18T05:51:59;98173.06;;;10.42;89.56
49040;BME280;36811;49.732;13.402;2023-02-18T05:54:26;98172.50;;;10.40;89.18
49040;BME280;36811;49.732;13.402;2023-02-18T05:56:52;98172.19;;;10.36;89.07
49040;BME280;36811;49.732;13.402;2023-02-18T05:59:18;98167.19;;;10.40;88.88
49040;BME280;36811;49.732;13.402;2023-02-18T06:01:44;98162.44;;;10.42;88.29
49040;BME280;36811;49.732;13.402;2023-02-18T06:04:11;98159.03;;;10.46;87.82
49040;BME280;36811;49.732;13.402;2023-02-18T06:06:37;98172.25;;;10.41;87.74
49040;BME280;36811;49.732;13.402;2023-02-18T06:09:04;98171.44;;;10.41;87.97
49040;BME280;36811;49.732;13.402;2023-02-18T06:11:30;98169.09;;;10.44;87.59
49040;BME280;36811;49.732;13.402;2023-02-18T06:13:56;98175.94;;;10.40;87.59
49040;BME280;36811;49.732;13.402;2023-02-18T06:16:22;98160.31;;;10.44;87.73
49040;BME280;36811;49.732;13.402;2023-02-18T06:18:48;98179.25;;;10.47;87.58
49040;BME280;36811;49.732;13.402;2023-02-18T06:21:14;98177.72;;;10.51;86.95
49040;BME280;36811;49.732;13.402;2023-02-18T06:23:39;98179.56;;;10.51;87.30
49040;BME280;36811;49.732;13.402;2023-02-18T06:26:05;98162.78;;;10.50;87.87
49040;BME280;36811;49.732;13.402;2023-02-18T06:28:30;98163.03;;;10.49;88.19
49040;BME280;36811;49.732;13.402;2023-02-18T06:30:56;98167.63;;;10.53;88.16
49040;BME280;36811;49.732;13.402;2023-02-18T06:33:22;98168.44;;;10.54;88.76
49040;BME280;36811;49.732;13.402;2023-02-18T06:36:05;98156.25;;;10.58;88.92
49040;BME280;36811;49.732;13.402;2023-02-18T06:38:33;98169.59;;;10.63;89.03
49040;BME280;36811;49.732;13.402;2023-02-18T06:40:59;98161.41;;;10.64;89.23
49040;BME280;36811;49.732;13.402;2023-02-18T06:43:25;98155.88;;;10.71;89.70
49040;BME280;36811;49.732;13.402;2023-02-18T06:45:50;98154.91;;;10.77;89.47
49040;BME280;36811;49.732;13.402;2023-02-18T06:48:16;98149.34;;;10.78;89.91
49040;BME280;36811;49.732;13.402;2023-02-18T06:50:43;98142.59;;;10.71;90.55
49040;BME280;36811;49.732;13.402;2023-02-18T06:53:09;98141.06;;;10.75;90.99
49040;BME280;36811;49.732;13.402;2023-02-18T06:55:35;98138.69;;;10.78;90.93
49040;BME280;36811;49.732;13.402;2023-02-18T06:58:00;98123.91;;;10.66;92.06
49040;BME280;36811;49.732;13.402;2023-02-18T07:00:26;98114.56;;;10.63;92.10
49040;BME280;36811;49.732;13.402;2023-02-18T07:02:51;98123.28;;;10.59;92.59
49040;BME280;36811;49.732;13.402;2023-02-18T07:05:17;98120.38;;;10.60;92.67
49040;BME280;36811;49.732;13.402;2023-02-18T07:07:43;98114.00;;;10.61;92.66
49040;BME280;36811;49.732;13.402;2023-02-18T07:10:09;98110.59;;;10.66;92.33
49040;BME280;36811;49.732;13.402;2023-02-18T07:12:35;98122.97;;;10.77;92.26
49040;BME280;36811;49.732;13.402;2023-02-18T07:15:02;98127.13;;;10.90;91.20
49040;BME280;36811;49.732;13.402;2023-02-18T07:17:27;98125.69;;;11.04;90.33
49040;BME280;36811;49.732;13.402;2023-02-18T07:19:53;98116.22;;;11.13;89.74
49040;BME280;36811;49.732;13.402;2023-02-18T07:22:21;98123.22;;;11.24;88.77
49040;BME280;36811;49.732;13.402;2023-02-18T07:24:51;98128.47;;;11.40;88.35
49040;BME280;36811;49.732;13.402;2023-02-18T07:27:18;98114.97;;;11.52;87.69
49040;BME280;36811;49.732;13.402;2023-02-18T07:29:45;98123.38;;;11.66;87.23
49040;BME280;36811;49.732;13.402;2023-02-18T07:32:12;98111.22;;;11.75;86.06
49040;BME280;36811;49.732;13.402;2023-02-18T07:34:38;98115.53;;;11.81;85.75
49040;BME280;36811;49.732;13.402;2023-02-18T07:37:04;98115.84;;;11.89;84.61
49040;BME280;36811;49.732;13.402;2023-02-18T07:39:35;98108.16;;;11.93;83.88
49040;BME280;36811;49.732;13.402;2023-02-18T07:42:02;98116.22;;;12.03;83.21
49040;BME280;36811;49.732;13.402;2023-02-18T07:44:28;98123.13;;;11.99;82.64
49040;BME280;36811;49.732;13.402;2023-02-18T07:46:55;98128.19;;;12.00;82.42
49040;BME280;36811;49.732;13.402;2023-02-18T07:49:21;98121.78;;;11.96;81.65
49040;BME280;36811;49.732;13.402;2023-02-18T07:51:48;98120.41;;;11.89;82.47
49040;BME280;36811;49.732;13.402;2023-02-18T07:54:14;98114.44;;;11.82;81.66
49040;BME280;36811;49.732;13.402;2023-02-18T07:56:39;98128.09;;;11.85;82.26
49040;BME280;36811;49.732;13.402;2023-02-18T07:59:09;98113.50;;;11.98;81.53
49040;BME280;36811;49.732;13.402;2023-02-18T08:01:34;98115.44;;;12.07;81.31
49040;BME280;36811;49.732;13.402;2023-02-18T08:04:00;98121.59;;;12.08;80.85
49040;BME280;36811;49.732;13.402;2023-02-18T08:06:52;98117.84;;;12.04;81.29
49040;BME280;36811;49.732;13.402;2023-02-18T08:09:17;98109.19;;;11.92;81.21
49040;BME280;36811;49.732;13.402;2023-02-18T08:11:43;98108.66;;;11.90;81.52
49040;BME280;36811;49.732;13.402;2023-02-18T08:14:09;98103.06;;;11.86;81.35
49040;BME280;36811;49.732;13.402;2023-02-18T08:16:35;98111.81;;;11.87;81.81
49040;BME280;36811;49.732;13.402;2023-02-18T08:19:01;98108.06;;;11.83;81.57
49040;BME280;36811;49.732;13.402;2023-02-18T08:21:32;98098.69;;;11.75;82.14
49040;BME280;36811;49.732;13.402;2023-02-18T08:23:58;98101.63;;;11.74;82.57
49040;BME280;36811;49.732;13.402;2023-02-18T08:26:24;98110.03;;;11.66;82.79
49040;BME280;36811;49.732;13.402;2023-02-18T08:28:50;98102.28;;;11.64;83.26
49040;BME280;36811;49.732;13.402;2023-02-18T08:31:17;98097.50;;;11.61;82.92
49040;BME280;36811;49.732;13.402;2023-02-18T08:33:43;98093.09;;;11.77;82.83
49040;BME280;36811;49.732;13.402;2023-02-18T08:36:09;98093.75;;;11.89;82.69
49040;BME280;36811;49.732;13.402;2023-02-18T08:38:35;98084.38;;;11.86;82.77
49040;BME280;36811;49.732;13.402;2023-02-18T08:41:02;98088.47;;;11.99;82.67
49040;BME280;36811;49.732;13.402;2023-02-18T08:43:29;98090.66;;;12.12;81.82
49040;BME280;36811;49.732;13.402;2023-02-18T08:45:56;98090.47;;;12.19;81.46
49040;BME280;36811;49.732;13.402;2023-02-18T08:48:23;98087.78;;;12.19;81.77
49040;BME280;36811;49.732;13.402;2023-02-18T08:50:49;98081.75;;;12.38;81.21
49040;BME280;36811;49.732;13.402;2023-02-18T08:53:15;98082.75;;;12.27;80.88
49040;BME280;36811;49.732;13.402;2023-02-18T08:55:41;98068.84;;;12.20;81.47
49040;BME280;36811;49.732;13.402;2023-02-18T08:58:07;98064.91;;;12.28;81.12
49040;BME280;36811;49.732;13.402;2023-02-18T09:00:33;98067.59;;;12.33;81.07
49040;BME280;36811;49.732;13.402;2023-02-18T09:02:59;98056.13;;;12.37;80.62
49040;BME280;36811;49.732;13.402;2023-02-18T09:05:25;98063.34;;;12.32;81.31
49040;BME280;36811;49.732;13.402;2023-02-18T09:07:50;98064.69;;;12.39;80.75
49040;BME280;36811;49.732;13.402;2023-02-18T09:10:16;98066.34;;;12.50;81.09
49040;BME280;36811;49.732;13.402;2023-02-18T09:12:42;98065.50;;;12.45;80.17
49040;BME280;36811;49.732;13.402;2023-02-18T09:15:07;98056.19;;;12.52;80.72
49040;BME280;36811;49.732;13.402;2023-02-18T09:17:33;98061.09;;;12.75;80.36
49040;BME280;36811;49.732;13.402;2023-02-18T09:19:59;98050.72;;;12.84;79.62
49040;BME280;36811;49.732;13.402;2023-02-18T09:22:25;98050.72;;;12.84;78.99
49040;BME280;36811;49.732;13.402;2023-02-18T09:24:50;98046.94;;;12.80;78.69
49040;BME280;36811;49.732;13.402;2023-02-18T09:27:16;98046.16;;;12.74;78.81
49040;BME280;36811;49.732;13.402;2023-02-18T09:29:42;98047.47;;;12.67;79.73
49040;BME280;36811;49.732;13.402;2023-02-18T09:32:09;98040.19;;;12.52;79.56
49040;BME280;36811;49.732;13.402;2023-02-18T09:34:37;98046.56;;;12.41;79.88
49040;BME280;36811;49.732;13.402;2023-02-18T09:37:03;98037.44;;;12.32;79.98
49040;BME280;36811;49.732;13.402;2023-02-18T09:39:29;98030.50;;;12.26;80.79
49040;BME280;36811;49.732;13.402;2023-02-18T09:41:58;98028.38;;;12.33;80.22
49040;BME280;36811;49.732;13.402;2023-02-18T09:44:31;98027.38;;;12.44;80.08
49040;BME280;36811;49.732;13.402;2023-02-18T09:49:33;98033.34;;;12.71;78.98
49040;BME280;36811;49.732;13.402;2023-02-18T09:52:21;98020.47;;;12.58;77.09
49040;BME280;36811;49.732;13.402;2023-02-18T09:54:49;98025.78;;;12.48;78.37
49040;BME280;36811;49.732;13.402;2023-02-18T09:57:40;98030.59;;;12.51;78.53
49040;BME280;36811;49.732;13.402;2023-02-18T10:00:35;98029.84;;;12.66;77.33
49040;BME280;36811;49.732;13.402;2023-02-18T10:03:16;98019.47;;;12.74;77.37
49040;BME280;36811;49.732;13.402;2023-02-18T10:06:02;98017.88;;;12.79;76.60
49040;BME280;36811;49.732;13.402;2023-02-18T10:08:47;98023.75;;;12.91;75.62
49040;BME280;36811;49.732;13.402;2023-02-18T10:11:40;98026.44;;;12.91;74.78
49040;BME280;36811;49.732;13.402;2023-02-18T10:14:14;98027.50;;;12.90;74.03
49040;BME280;36811;49.732;13.402;2023-02-18T10:16:41;98020.03;;;12.97;73.51
49040;BME280;36811;49.732;13.402;2023-02-18T10:19:21;98032.06;;;12.99;73.40
49040;BME280;36811;49.732;13.402;2023-02-18T10:21:49;98019.00;;;13.03;72.69
49040;BME280;36811;49.732;13.402;2023-02-18T10:24:27;98025.44;;;13.22;71.09
49040;BME280;36811;49.732;13.402;2023-02-18T10:26:54;98036.41;;;13.61;71.39
49040;BME280;36811;49.732;13.402;2023-02-18T10:29:21;98018.91;;;14.24;70.17
49040;BME280;36811;49.732;13.402;2023-02-18T10:31:58;98009.25;;;14.33;67.29
49040;BME280;36811;49.732;13.402;2023-02-18T10:34:46;98008.69;;;14.41;67.18
49040;BME280;36811;49.732;13.402;2023-02-18T10:37:39;97986.44;;;14.45;66.87
49040;BME280;36811;49.732;13.402;2023-02-18T10:42:53;97965.91;;;14.36;64.94
49040;BME280;36811;49.732;13.402;2023-02-18T10:50:49;97981.09;;;14.94;64.01
49040;BME280;36811;49.732;13.402;2023-02-18T10:54:00;97977.88;;;14.97;62.80
49040;BME280;36811;49.732;13.402;2023-02-18T10:56:07;97973.69;;;14.81;62.57
49040;BME280;36811;49.732;13.402;2023-02-18T10:58:41;97974.88;;;14.60;62.82
49040;BME280;36811;49.732;13.402;2023-02-18T11:01:15;97976.59;;;14.41;63.68
49040;BME280;36811;49.732;13.402;2023-02-18T11:03:45;97958.38;;;14.38;63.76
49040;BME280;36811;49.732;13.402;2023-02-18T11:08:44;97974.06;;;13.90;63.96
49040;BME280;36811;49.732;13.402;2023-02-18T11:11:22;97963.94;;;13.72;64.55
49040;BME280;36811;49.732;13.402;2023-02-18T11:13:54;97974.94;;;13.66;65.89
49040;BME280;36811;49.732;13.402;2023-02-18T11:16:22;97969.84;;;13.54;66.32
49040;BME280;36811;49.732;13.402;2023-02-18T11:18:48;97955.97;;;13.47;66.44
49040;BME280;36811;49.732;13.402;2023-02-18T11:23:56;97946.34;;;13.41;66.27
49040;BME280;36811;49.732;13.402;2023-02-18T11:26:40;97944.22;;;13.43;66.14
49040;BME280;36811;49.732;13.402;2023-02-18T11:29:14;97942.91;;;13.41;66.99
49040;BME280;36811;49.732;13.402;2023-02-18T11:31:46;97937.25;;;13.62;66.73
49040;BME280;36811;49.732;13.402;2023-02-18T11:34:22;97928.91;;;13.74;65.48
49040;BME280;36811;49.732;13.402;2023-02-18T11:36:51;97923.56;;;13.74;65.05
49040;BME280;36811;49.732;13.402;2023-02-18T11:39:23;97922.22;;;13.76;65.12
49040;BME280;36811;49.732;13.402;2023-02-18T11:41:56;97918.97;;;13.89;65.24
49040;BME280;36811;49.732;13.402;2023-02-18T11:47:00;97900.56;;;13.83;64.84
49040;BME280;36811;49.732;13.402;2023-02-18T11:49:28;97888.84;;;13.59;64.81
49040;BME280;36811;49.732;13.402;2023-02-18T11:52:16;97885.69;;;13.52;65.98
49040;BME280;36811;49.732;13.402;2023-02-18T11:54:41;97873.16;;;13.42;66.05
49040;BME280;36811;49.732;13.402;2023-02-18T11:57:12;97888.16;;;13.28;66.51
49040;BME280;36811;49.732;13.402;2023-02-18T11:59:40;97874.78;;;13.28;66.98
49040;BME280;36811;49.732;13.402;2023-02-18T12:04:51;97843.53;;;13.13;66.81
49040;BME280;36811;49.732;13.402;2023-02-18T12:07:26;97854.22;;;13.03;66.48
49040;BME280;36811;49.732;13.402;2023-02-18T12:10:03;97852.63;;;13.02;67.28
49040;BME280;36811;49.732;13.402;2023-02-18T12:12:31;97856.34;;;13.01;67.63
49040;BME280;36811;49.732;13.402;2023-02-18T12:15:01;97844.63;;;12.97;67.76
49040;BME280;36811;49.732;13.402;2023-02-18T12:17:59;97859.84;;;12.87;68.49
49040;BME280;36811;49.732;13.402;2023-02-18T12:20:41;97855.84;;;12.99;67.87
49040;BME280;36811;49.732;13.402;2023-02-18T12:26:14;97834.19;;;12.91;68.12
49040;BME280;36811;49.732;13.402;2023-02-18T12:39:53;97812.31;;;12.89;67.85
49040;BME280;36811;49.732;13.402;2023-02-18T12:45:44;97796.31;;;12.84;67.81
49040;BME280;36811;49.732;13.402;2023-02-18T12:50:59;97796.81;;;13.01;67.19
49040;BME280;36811;49.732;13.402;2023-02-18T13:04:42;97790.78;;;13.59;65.55
49040;BME280;36811;49.732;13.402;2023-02-18T13:07:29;97792.59;;;13.69;64.18
49040;BME280;36811;49.732;13.402;2023-02-18T13:12:50;97774.28;;;14.35;61.41
49040;BME280;36811;49.732;13.402;2023-02-18T13:16:10;97784.78;;;14.26;62.19
49040;BME280;36811;49.732;13.402;2023-02-18T13:18:36;97782.25;;;14.45;61.71
49040;BME280;36811;49.732;13.402;2023-02-18T13:21:07;97778.03;;;14.39;61.69
49040;BME280;36811;49.732;13.402;2023-02-18T13:23:38;97753.28;;;14.18;61.65
49040;BME280;36811;49.732;13.402;2023-02-18T13:26:08;97762.91;;;14.14;61.91
49040;BME280;36811;49.732;13.402;2023-02-18T13:28:42;97772.88;;;14.09;62.03
49040;BME280;36811;49.732;13.402;2023-02-18T13:31:18;97768.59;;;14.08;61.58
49040;BME280;36811;49.732;13.402;2023-02-18T13:37:10;97766.63;;;13.79;61.97
49040;BME280;36811;49.732;13.402;2023-02-18T13:39:29;97737.00;;;13.71;62.19
49040;BME280;36811;49.732;13.402;2023-02-18T13:47:45;97762.38;;;13.73;61.50
49040;BME280;36811;49.732;13.402;2023-02-18T13:53:01;97750.69;;;13.59;62.26
49040;BME280;36811;49.732;13.402;2023-02-18T14:01:40;97737.03;;;13.66;62.12
49040;BME280;36811;49.732;13.402;2023-02-18T14:04:35;97751.22;;;13.56;62.31
49040;BME280;36811;49.732;13.402;2023-02-18T14:07:25;97742.69;;;13.54;62.12
49040;BME280;36811;49.732;13.402;2023-02-18T14:09:55;97744.78;;;13.62;62.28
49040;BME280;36811;49.732;13.402;2023-02-18T14:12:34;97739.41;;;13.67;62.60
49040;BME280;36811;49.732;13.402;2023-02-18T14:18:08;97729.03;;;13.66;62.34
49040;BME280;36811;49.732;13.402;2023-02-18T14:25:53;97741.69;;;13.45;62.34
49040;BME280;36811;49.732;13.402;2023-02-18T14:28:43;97734.75;;;13.39;62.61
49040;BME280;36811;49.732;13.402;2023-02-18T14:42:40;97747.25;;;12.59;68.00
49040;BME280;36811;49.732;13.402;2023-02-18T14:50:34;97744.84;;;12.18;70.59
49040;BME280;36811;49.732;13.402;2023-02-18T14:53:07;97744.59;;;12.04;70.93
49040;BME280;36811;49.732;13.402;2023-02-18T14:55:42;97752.84;;;12.07;70.96
49040;BME280;36811;49.732;13.402;2023-02-18T14:58:48;97766.19;;;12.13;70.69
49040;BME280;36811;49.732;13.402;2023-02-18T15:01:22;97750.47;;;12.21;69.93
49040;BME280;36811;49.732;13.402;2023-02-18T15:03:50;97770.19;;;12.25;70.45
49040;BME280;36811;49.732;13.402;2023-02-18T15:06:33;97772.84;;;12.30;70.80
49040;BME280;36811;49.732;13.402;2023-02-18T15:09:11;97775.00;;;12.33;70.70
49040;BME280;36811;49.732;13.402;2023-02-18T15:11:59;97774.47;;;12.36;69.44
49040;BME280;36811;49.732;13.402;2023-02-18T15:14:30;97724.59;;;12.37;69.51
49040;BME280;36811;49.732;13.402;2023-02-18T15:16:58;97773.94;;;12.34;69.85
49040;BME280;36811;49.732;13.402;2023-02-18T15:19:28;97764.84;;;12.40;69.32
49040;BME280;36811;49.732;13.402;2023-02-18T15:21:56;97764.03;;;12.45;68.73